Time;durP1;ratioP1;P1;durP2;ratioP2;P2;SDS_P1;SDS_P2;PMS_P1;PMS_P2;Temp;Humidity;BMP_temperature;BMP_pressure;BME280_temperature;BME280_humidity;BME280_pressure;Samples;Min_cycle;Max_cycle;Signal;HPM_P1;HPM_P2
2022/08/11 00:01:26;;;;;;;7.88;4.13;;;19.10;94.20;;;;;;4977207;28;20042;-89
2022/08/11 00:04:00;;;;;;;5.65;4.18;;;19.00;94.50;;;;;;4977483;28;20026;-89
2022/08/11 00:06:35;;;;;;;6.25;4.57;;;19.00;94.80;;;;;;4977527;28;20038;-90
2022/08/11 00:09:04;;;;;;;6.03;4.60;;;18.90;95.00;;;;;;4994918;28;20027;-89
2022/08/11 00:11:39;;;;;;;6.85;4.30;;;18.80;95.20;;;;;;4977207;28;20030;-89
2022/08/11 00:14:13;;;;;;;14.20;4.82;;;18.80;95.60;;;;;;4980772;28;20612;-89
2022/08/11 00:16:40;;;;;;;7.70;4.82;;;18.80;95.90;;;;;;4999994;28;20030;-88
2022/08/11 00:19:08;;;;;;;7.57;4.07;;;18.80;96.20;;;;;;4977408;28;20122;-88
2022/08/11 00:21:40;;;;;;;7.72;4.30;;;18.80;96.50;;;;;;4977220;28;20046;-89
2022/08/11 00:24:07;;;;;;;4.70;4.10;;;18.80;96.80;;;;;;4976535;28;20033;-89
2022/08/11 00:26:35;;;;;;;8.18;4.70;;;18.80;97.00;;;;;;4983696;28;20108;-89
2022/08/11 00:29:11;;;;;;;5.13;4.05;;;18.70;97.20;;;;;;5000374;28;20488;-89
2022/08/11 00:31:42;;;;;;;8.15;4.05;;;18.70;97.40;;;;;;4976886;28;20050;-90
2022/08/11 00:34:11;;;;;;;6.30;3.85;;;18.60;97.50;;;;;;4976890;28;20093;-89
2022/08/11 00:36:58;;;;;;;6.60;3.60;;;18.50;97.50;;;;;;4976596;28;20042;-90
2022/08/11 00:39:26;;;;;;;6.97;4.35;;;18.50;97.80;;;;;;4976479;28;20476;-89
2022/08/11 00:42:29;;;;;;;9.93;4.03;;;18.50;97.90;;;;;;4976449;28;20045;-89
2022/08/11 00:45:20;;;;;;;4.60;3.88;;;18.40;98.10;;;;;;4976313;28;20027;-89
2022/08/11 00:48:05;;;;;;;4.38;3.90;;;18.40;98.10;;;;;;4976215;28;20034;-88
2022/08/11 00:50:55;;;;;;;7.00;4.13;;;18.30;98.20;;;;;;4976367;28;20085;-90
2022/08/11 00:53:34;;;;;;;5.90;4.43;;;18.20;98.60;;;;;;4975482;28;20077;-90
2022/08/11 00:56:17;;;;;;;7.65;4.65;;;18.20;98.80;;;;;;4976973;28;20027;-89
2022/08/11 00:58:52;;;;;;;5.93;3.92;;;18.10;99.00;;;;;;4976912;28;20054;-88
2022/08/11 01:01:29;;;;;;;10.63;5.28;;;18.00;99.20;;;;;;4977377;28;20027;-88
2022/08/11 01:04:29;;;;;;;9.20;4.50;;;17.90;99.50;;;;;;4982462;28;20049;-89
2022/08/11 01:07:33;;;;;;;6.47;4.20;;;17.90;99.90;;;;;;4991973;28;20030;-88
2022/08/11 01:10:40;;;;;;;7.57;4.25;;;17.80;99.90;;;;;;4938776;29;20063;-88
2022/08/11 01:13:25;;;;;;;8.07;4.63;;;17.80;99.90;;;;;;4925338;29;20151;-87
2022/08/11 01:16:27;;;;;;;7.18;4.75;;;17.60;99.90;;;;;;4920801;29;20548;-90
2022/08/11 01:19:24;;;;;;;7.18;4.15;;;17.60;99.90;;;;;;4920172;29;20048;-89
2022/08/11 01:22:36;;;;;;;6.18;4.68;;;17.50;99.90;;;;;;4877905;29;20077;-89
2022/08/11 01:25:54;;;;;;;6.43;4.50;;;17.50;99.90;;;;;;4824870;29;20042;-90
2022/08/11 01:28:49;;;;;;;6.07;4.50;;;17.40;99.90;;;;;;4817453;29;20142;-89
2022/08/11 01:31:32;;;;;;;5.85;4.53;;;17.20;99.90;;;;;;4821499;29;20054;-88
2022/08/11 01:34:16;;;;;;;12.05;4.80;;;17.20;99.90;;;;;;4830244;29;20191;-89
2022/08/11 01:37:12;;;;;;;9.23;4.93;;;17.20;99.90;;;;;;4839511;29;20206;-89
2022/08/11 01:40:15;;;;;;;8.90;5.22;;;17.10;99.90;;;;;;4806029;29;20049;-87
2022/08/11 01:46:04;;;;;;;8.68;4.80;;;17.10;99.90;;;;;;4858269;29;20037;-88
2022/08/11 01:48:52;;;;;;;8.35;4.63;;;17.10;99.90;;;;;;4842201;29;20046;-89
2022/08/11 01:51:34;;;;;;;10.18;4.93;;;17.10;99.90;;;;;;4857480;29;20065;-90
2022/08/11 01:54:25;;;;;;;10.95;5.55;;;17.00;99.90;;;;;;4857547;29;20071;-89
2022/08/11 01:57:01;;;;;;;11.65;5.13;;;17.00;99.90;;;;;;4852038;29;20029;-87
2022/08/11 02:00:05;;;;;;;11.80;5.35;;;16.90;99.90;;;;;;4890482;29;20050;-88
2022/08/11 02:03:03;;;;;;;8.13;4.38;;;16.80;99.90;;;;;;4887429;29;20040;-89
2022/08/11 02:05:44;;;;;;;6.13;4.53;;;16.70;99.90;;;;;;4898588;29;20482;-89
2022/08/11 02:08:20;;;;;;;6.38;5.05;;;16.70;99.90;;;;;;4899847;29;20074;-89
2022/08/11 02:11:29;;;;;;;7.57;4.93;;;16.60;99.90;;;;;;4904102;29;20130;-89
2022/08/11 02:14:21;;;;;;;7.82;5.20;;;16.60;99.90;;;;;;4902749;29;20088;-89
2022/08/11 02:16:58;;;;;;;7.18;5.00;;;16.60;99.90;;;;;;4901462;29;20127;-89
2022/08/11 02:25:42;;;;;;;7.05;5.40;;;16.50;99.90;;;;;;4973347;28;20062;-89
2022/08/11 02:28:11;;;;;;;;;;;16.50;99.90;;;;;;4975415;28;20089;-88
2022/08/11 02:33:21;;;;;;;7.05;4.57;;;16.40;99.90;;;;;;4976629;28;19909;-89
2022/08/11 02:33:50;;;;;;;6.95;4.70;;;16.40;99.90;;;;;;4995894;28;20499;-89
2022/08/11 02:36:20;;;;;;;9.38;5.20;;;16.40;99.90;;;;;;4975537;28;20432;-89
2022/08/11 02:39:20;;;;;;;9.48;5.25;;;16.40;99.90;;;;;;4975143;28;20455;-88
2022/08/11 02:42:24;;;;;;;9.68;4.70;;;16.40;99.90;;;;;;4958498;28;20074;-89
2022/08/11 02:45:05;;;;;;;7.18;5.55;;;16.30;99.90;;;;;;4975041;28;20077;-89
2022/08/11 02:50:51;;;;;;;7.22;5.18;;;16.20;99.90;;;;;;4995947;28;20089;-90
2022/08/11 02:54:13;;;;;;;10.98;5.72;;;16.10;99.90;;;;;;4978365;28;20042;-88
2022/08/11 02:57:02;;;;;;;6.85;5.55;;;16.10;99.90;;;;;;4901541;29;20122;-89
2022/08/11 02:59:51;;;;;;;6.93;5.00;;;16.00;99.90;;;;;;4900739;29;20042;-89
2022/08/11 03:02:33;;;;;;;9.43;5.70;;;16.00;99.90;;;;;;4900488;29;20036;-88
2022/08/11 03:05:40;;;;;;;8.20;5.35;;;16.00;99.90;;;;;;4900909;29;20418;-89
2022/08/11 03:08:22;;;;;;;8.23;5.22;;;16.00;99.90;;;;;;4900760;29;20550;-89
2022/08/11 03:17:28;;;;;;;5.97;5.15;;;15.90;99.90;;;;;;4916355;29;20137;-88
2022/08/11 03:20:11;;;;;;;9.32;5.03;;;15.90;99.90;;;;;;4900277;29;20031;-89
2022/08/11 03:23:04;;;;;;;6.85;4.80;;;15.90;99.90;;;;;;4900161;29;20040;-89
2022/08/11 03:25:56;;;;;;;8.32;5.03;;;15.80;99.90;;;;;;4899690;29;20096;-89
2022/08/11 03:28:31;;;;;;;10.05;5.18;;;15.80;99.90;;;;;;4900074;29;20051;-89
2022/08/11 03:31:29;;;;;;;9.48;5.03;;;15.80;99.90;;;;;;4958141;28;20034;-89
2022/08/11 03:34:19;;;;;;;8.82;5.15;;;15.70;99.90;;;;;;4976911;28;20061;-89
2022/08/11 03:43:44;;;;;;;7.55;5.25;;;15.70;99.90;;;;;;4994623;28;20054;-88
2022/08/11 03:46:15;;;;;;;7.70;5.22;;;15.70;99.90;;;;;;4977171;28;20034;-88
2022/08/11 03:49:14;;;;;;;7.20;5.20;;;15.60;99.90;;;;;;4975641;28;20085;-88
2022/08/11 03:52:21;;;;;;;8.23;5.03;;;15.60;99.90;;;;;;4976921;28;20026;-89
2022/08/11 03:55:11;;;;;;;8.40;5.10;;;15.60;99.90;;;;;;4899662;29;20032;-88
2022/08/11 03:58:04;;;;;;;7.43;5.07;;;15.50;99.90;;;;;;4899442;29;20510;-89
2022/08/11 04:00:48;;;;;;;6.60;4.97;;;15.50;99.90;;;;;;4898495;29;20115;-88
2022/08/11 04:03:36;;;;;;;9.48;5.25;;;15.40;99.90;;;;;;4899992;29;20153;-88
2022/08/11 04:06:20;;;;;;;6.63;5.13;;;15.40;99.90;;;;;;4899639;29;20076;-88
2022/08/11 04:09:07;;;;;;;9.07;5.55;;;15.40;99.90;;;;;;4902833;29;20029;-88
2022/08/11 04:12:00;;;;;;;8.07;5.60;;;15.30;99.90;;;;;;4899263;29;20024;-87
2022/08/11 04:17:34;;;;;;;8.03;4.93;;;15.20;99.90;;;;;;4915377;29;20147;-88
2022/08/11 04:20:36;;;;;;;8.80;5.50;;;15.10;99.90;;;;;;4899195;29;20028;-89
2022/08/11 04:23:47;;;;;;;6.25;5.05;;;15.10;99.90;;;;;;4899471;29;20048;-88
2022/08/11 04:26:40;;;;;;;8.15;5.47;;;15.10;99.90;;;;;;4870643;29;20044;-89
2022/08/11 04:29:24;;;;;;;8.45;5.13;;;15.00;99.90;;;;;;4946275;28;20049;-90
2022/08/11 04:32:16;;;;;;;6.28;5.20;;;15.00;99.90;;;;;;4993472;28;20038;-87
2022/08/11 04:35:07;;;;;;;11.25;6.35;;;15.00;99.90;;;;;;4976767;28;20032;-87
2022/08/11 04:37:53;;;;;;;7.95;5.93;;;14.90;99.90;;;;;;4976254;28;20446;-88
2022/08/11 04:40:57;;;;;;;10.05;6.13;;;14.90;99.90;;;;;;4976252;28;20085;-89
2022/08/11 04:43:41;;;;;;;8.57;6.13;;;14.90;99.90;;;;;;4976448;28;20127;-88
2022/08/11 04:46:28;;;;;;;8.65;6.13;;;14.80;99.90;;;;;;4976225;28;20026;-87
2022/08/11 05:01:40;;;;;;;7.70;5.55;;;14.50;99.90;;;;;;4993318;28;20116;-89
2022/08/11 05:07:15;;;;;;;10.43;5.03;;;14.50;99.90;;;;;;4995515;28;20081;-86
2022/08/11 05:09:41;;;;;;;9.02;4.95;;;14.40;99.90;;;;;;4975946;28;20558;-89
2022/08/11 05:12:28;;;;;;;8.82;5.85;;;14.40;99.90;;;;;;4975742;28;20198;-88
2022/08/11 05:35:06;;;;;;;9.30;6.57;;;14.20;99.90;;;;;;4993139;28;20118;-88
2022/08/11 05:57:18;;;;;;;7.00;5.78;;;14.20;99.90;;;;;;4993945;28;20030;-88
2022/08/11 05:59:45;;;;;;;8.50;6.55;;;14.20;99.90;;;;;;4992619;28;20030;-88
2022/08/11 06:02:12;;;;;;;12.07;5.88;;;14.30;99.90;;;;;;4975265;28;20041;-88
2022/08/11 06:04:39;;;;;;;10.57;6.30;;;14.30;99.90;;;;;;4976873;28;20084;-87
2022/08/11 06:07:09;;;;;;;8.40;6.60;;;14.40;99.90;;;;;;4975061;28;20043;-90
2022/08/11 06:09:35;;;;;;;11.40;6.80;;;14.40;99.90;;;;;;4975209;28;20564;-88
2022/08/11 06:12:07;;;;;;;11.23;6.45;;;14.40;99.90;;;;;;4975312;28;20022;-86
2022/08/11 06:14:34;;;;;;;12.50;6.95;;;14.40;99.90;;;;;;4974914;28;20394;-89
2022/08/11 06:17:05;;;;;;;9.63;6.32;;;14.40;99.90;;;;;;4975493;28;20026;-88
2022/08/11 06:19:45;;;;;;;10.82;6.35;;;14.40;99.90;;;;;;4977517;28;20023;-88
2022/08/11 06:22:12;;;;;;;7.82;6.22;;;14.50;99.90;;;;;;4978822;28;20132;-89
2022/08/11 06:24:40;;;;;;;10.43;6.35;;;14.50;99.90;;;;;;4982955;28;20030;-89
2022/08/11 06:27:07;;;;;;;6.97;5.43;;;14.50;99.90;;;;;;4981197;28;20250;-89
2022/08/11 06:29:39;;;;;;;7.22;5.78;;;14.50;99.90;;;;;;4979808;28;20142;-89
2022/08/11 06:32:06;;;;;;;7.95;5.50;;;14.60;99.90;;;;;;4980341;28;20484;-89
2022/08/11 06:35:19;;;;;;;8.50;6.03;;;14.70;99.90;;;;;;4979424;28;20027;-89
2022/08/11 06:38:02;;;;;;;7.88;5.90;;;14.80;99.90;;;;;;4979049;28;20100;-88
2022/08/11 06:40:34;;;;;;;7.43;5.45;;;14.80;99.90;;;;;;4979147;28;20038;-88
2022/08/11 06:43:22;;;;;;;8.38;6.10;;;14.90;99.90;;;;;;4979145;28;20039;-89
2022/08/11 06:45:54;;;;;;;13.40;6.20;;;15.00;99.90;;;;;;4978750;28;20117;-90
2022/08/11 06:48:21;;;;;;;7.90;6.35;;;15.10;99.90;;;;;;4980202;28;20034;-88
2022/08/11 06:53:37;;;;;;;9.95;5.88;;;15.20;99.90;;;;;;4996618;28;20034;-89
2022/08/11 07:01:53;;;;;;;11.05;6.32;;;15.50;99.90;;;;;;4996566;28;20033;-89
2022/08/11 07:04:50;;;;;;;7.25;5.50;;;15.60;99.90;;;;;;4979152;28;20097;-89
2022/08/11 07:16:33;;;;;;;6.47;4.90;;;16.10;99.90;;;;;;4996082;28;20111;-89
2022/08/11 07:30:31;;;;;;;7.32;5.32;;;16.80;99.90;;;;;;4990530;28;20037;-89
2022/08/11 07:33:00;;;;;;;6.88;4.75;;;17.00;99.90;;;;;;4977220;28;20029;-90
2022/08/11 07:35:34;;;;;;;7.20;4.78;;;17.00;99.90;;;;;;4990680;28;20408;-88
2022/08/11 07:38:15;;;;;;;9.98;5.15;;;17.20;99.90;;;;;;4978343;28;20109;-88
2022/08/11 07:40:42;;;;;;;7.93;4.85;;;17.20;99.90;;;;;;4993066;28;20084;-89
2022/08/11 07:43:09;;;;;;;12.07;5.70;;;17.30;99.90;;;;;;4979397;28;20034;-88
2022/08/11 07:53:55;;;;;;;10.63;5.80;;;17.90;99.90;;;;;;4993686;28;20061;-90
2022/08/11 07:56:21;;;;;;;7.72;5.45;;;18.00;99.90;;;;;;4979026;28;20097;-90
2022/08/11 08:18:07;;;;;;;5.70;4.13;;;19.10;99.90;;;;;;5002704;28;20029;-89
2022/08/11 08:20:37;;;;;;;6.32;4.47;;;19.30;99.90;;;;;;4984802;28;20029;-90
2022/08/11 08:23:04;;;;;;;6.65;4.65;;;19.40;99.90;;;;;;4977644;28;20034;-89
2022/08/11 08:25:32;;;;;;;7.93;4.25;;;19.60;99.90;;;;;;4977208;28;20010;-90
2022/08/11 08:27:59;;;;;;;7.53;4.05;;;19.70;99.90;;;;;;4976945;28;20052;-91
2022/08/11 08:33:28;;;;;;;10.02;4.40;;;20.00;99.90;;;;;;4992715;28;20048;-88
2022/08/11 08:36:14;;;;;;;10.77;4.45;;;20.20;99.90;;;;;;4960884;28;20035;-90
2022/08/11 08:38:52;;;;;;;9.20;3.95;;;20.40;99.90;;;;;;4959710;28;20027;-91
2022/08/11 08:41:26;;;;;;;8.75;4.82;;;20.60;99.90;;;;;;4961174;28;20099;-92
2022/08/11 08:43:56;;;;;;;9.43;3.72;;;20.80;99.90;;;;;;4976904;28;20045;-93
2022/08/11 08:46:26;;;;;;;7.45;3.42;;;21.00;99.90;;;;;;4985877;28;20038;-94
2022/08/11 08:48:53;;;;;;;;;;;21.20;99.90;;;;;;4981057;28;20026;-91
2022/08/11 08:51:35;;;;;;;7.68;3.70;;;21.30;99.90;;;;;;4979019;28;20033;-93
2022/08/11 08:54:13;;;;;;;8.05;3.53;;;21.50;99.90;;;;;;4978629;28;20459;-92
2022/08/11 08:56:41;;;;;;;9.10;3.75;;;21.80;99.90;;;;;;4977855;28;20041;-93
2022/08/11 08:59:11;;;;;;;7.90;3.35;;;22.00;99.90;;;;;;4978074;28;20038;-91
2022/08/11 09:01:46;;;;;;;7.53;3.10;;;22.20;99.60;;;;;;4983610;28;20400;-94
2022/08/11 09:04:14;;;;;;;7.38;3.00;;;22.40;99.00;;;;;;4984055;28;20031;-93
2022/08/11 09:06:43;;;;;;;5.65;3.00;;;22.60;97.90;;;;;;4977691;28;20076;-93
2022/08/11 09:09:13;;;;;;;8.45;3.63;;;22.80;97.10;;;;;;4989217;28;20026;-94
2022/08/11 09:11:54;;;;;;;4.97;2.92;;;23.00;96.30;;;;;;4990927;28;20116;-95
2022/08/11 09:14:23;;;;;;;8.75;2.92;;;23.20;95.50;;;;;;4992389;28;20035;-93
2022/08/11 09:16:51;;;;;;;5.30;2.78;;;23.50;94.60;;;;;;4978960;28;20038;-91
2022/08/11 09:19:19;;;;;;;8.10;2.63;;;23.60;93.60;;;;;;4994386;28;20086;-91
2022/08/11 09:26:58;;;;;;;5.88;2.38;;;23.90;92.50;;;;;;4989973;28;20038;-93
2022/08/11 09:27:22;;;;;;;6.88;2.40;;;24.40;90.80;;;;;;5008866;28;20065;-94
2022/08/11 09:29:49;;;;;;;5.18;2.25;;;24.60;90.10;;;;;;4991692;28;20057;-92
2022/08/11 09:32:20;;;;;;;3.28;1.60;;;24.90;88.30;;;;;;5001425;28;20030;-93
2022/08/11 09:34:46;;;;;;;4.60;1.70;;;25.10;85.10;;;;;;4993469;28;20022;-94
2022/08/11 09:40:30;;;;;;;7.20;1.83;;;25.60;79.70;;;;;;4941153;29;20027;-95
2022/08/11 09:46:04;;;;;;;5.68;1.52;;;26.20;76.30;;;;;;4943062;29;20112;-93
2022/08/11 09:48:44;;;;;;;3.08;1.75;;;26.40;74.70;;;;;;4933140;29;20035;-91
2022/08/11 09:51:10;;;;;;;;;;;26.70;72.10;;;;;;4953315;29;20035;-93
2022/08/11 09:53:42;;;;;;;2.30;1.63;;;26.90;70.70;;;;;;4954440;29;19910;-93
2022/08/11 09:59:01;;;;;;;2.35;1.50;;;27.20;66.80;;;;;;4938084;29;20055;-92
2022/08/11 10:01:50;;;;;;;3.70;1.50;;;27.30;65.40;;;;;;4957337;29;20027;-95
2022/08/11 10:04:21;;;;;;;4.07;1.63;;;27.50;63.70;;;;;;4937163;29;20055;-92
2022/08/11 10:07:02;;;;;;;3.95;1.73;;;27.70;62.40;;;;;;4953226;29;20099;-91
2022/08/11 10:09:47;;;;;;;5.38;1.67;;;27.70;61.40;;;;;;4957567;29;20084;-92
2022/08/11 10:12:23;;;;;;;6.13;1.80;;;27.90;60.80;;;;;;4958067;29;20036;-91
2022/08/11 10:20:33;;;;;;;2.22;1.45;;;28.50;59.00;;;;;;4998493;28;20082;-92
2022/08/11 10:28:33;;;;;;;4.22;1.55;;;28.70;57.20;;;;;;4995234;28;20138;-91
2022/08/11 10:34:02;;;;;;;5.43;1.35;;;29.20;56.70;;;;;;4992573;28;20046;-95
2022/08/11 10:36:57;;;;;;;6.05;1.50;;;29.30;56.00;;;;;;4977060;28;20054;-92
2022/08/11 10:39:23;;;;;;;7.72;1.60;;;29.50;55.30;;;;;;5002818;28;20049;-92
2022/08/11 10:44:40;;;;;;;4.65;1.67;;;29.70;54.80;;;;;;4996399;28;20046;-93
2022/08/11 11:00:59;;;;;;;3.55;1.50;;;30.50;52.10;;;;;;4995938;28;20087;-91
2022/08/11 11:03:33;;;;;;;5.53;1.65;;;30.70;51.90;;;;;;4993643;28;20029;-93
2022/08/11 11:06:27;;;;;;;7.43;1.92;;;31.00;51.50;;;;;;4993769;28;20041;-90
2022/08/11 11:09:16;;;;;;;2.25;1.42;;;31.20;51.10;;;;;;4957452;29;20094;-92
2022/08/11 11:20:45;;;;;;;3.53;1.70;;;31.70;49.90;;;;;;4977931;28;20054;-94
2022/08/11 11:23:36;;;;;;;5.40;1.80;;;31.70;49.50;;;;;;4971799;28;20047;-93
2022/08/11 11:26:39;;;;;;;6.10;1.65;;;31.80;49.40;;;;;;4961992;29;20053;-93
2022/08/11 11:29:43;;;;;;;2.08;1.42;;;32.10;48.90;;;;;;4963604;29;20054;-91
2022/08/11 11:32:20;;;;;;;5.03;1.85;;;32.20;48.80;;;;;;4963269;29;20031;-95
2022/08/11 11:35:11;;;;;;;8.68;2.38;;;32.30;48.50;;;;;;4962766;29;20024;-95
2022/08/11 11:37:38;;;;;;;7.28;1.60;;;32.50;47.90;;;;;;4962397;29;20015;-92
2022/08/11 11:40:10;;;;;;;5.40;1.55;;;32.60;48.00;;;;;;4962400;29;20055;-94
2022/08/11 11:42:39;;;;;;;2.00;1.65;;;32.90;47.60;;;;;;4961500;29;20119;-92
2022/08/11 11:45:05;;;;;;;4.18;2.30;;;33.00;47.20;;;;;;4963261;28;20121;-93
2022/08/11 11:47:32;;;;;;;3.05;2.00;;;33.10;46.90;;;;;;4961529;29;20035;-94
2022/08/11 11:49:58;;;;;;;3.88;2.10;;;33.20;47.10;;;;;;4960741;29;20054;-94
2022/08/11 11:52:25;;;;;;;4.22;1.98;;;33.20;46.70;;;;;;4962592;29;20038;-93
2022/08/11 11:54:55;;;;;;;3.17;1.88;;;33.40;46.50;;;;;;4963987;29;20074;-93
2022/08/11 12:03:09;;;;;;;4.13;1.70;;;33.80;45.40;;;;;;4978334;28;20046;-96
2022/08/11 12:05:36;;;;;;;7.03;1.90;;;33.90;44.70;;;;;;4958225;29;20023;-93
2022/08/11 12:08:16;;;;;;;5.32;1.67;;;33.90;44.50;;;;;;4960209;29;20048;-92
2022/08/11 12:13:46;;;;;;;5.40;1.63;;;33.80;43.80;;;;;;4977115;29;20058;-93
2022/08/11 12:16:14;;;;;;;5.10;1.67;;;33.90;43.70;;;;;;4962626;29;20119;-92
2022/08/11 12:18:42;;;;;;;7.68;1.80;;;34.00;43.70;;;;;;4958639;29;20031;-94
2022/08/11 12:21:09;;;;;;;3.97;1.98;;;34.20;43.70;;;;;;4957859;29;20031;-94
2022/08/11 12:29:10;;;;;;;5.93;1.80;;;34.20;42.90;;;;;;4974415;29;20158;-93
2022/08/11 12:31:38;;;;;;;6.13;1.90;;;34.20;43.00;;;;;;4957174;29;20118;-93
2022/08/11 12:34:09;;;;;;;5.53;2.10;;;34.10;42.80;;;;;;4951407;29;20019;-93
2022/08/11 12:36:41;;;;;;;3.88;1.77;;;34.10;42.80;;;;;;4959092;29;20028;-92
2022/08/11 12:39:17;;;;;;;6.95;2.08;;;33.90;42.50;;;;;;4959932;29;20030;-93
2022/08/11 12:47:18;;;;;;;8.70;2.20;;;34.20;42.00;;;;;;4977425;29;20086;-95
2022/08/11 12:52:42;;;;;;;5.57;1.80;;;34.80;41.20;;;;;;4979181;28;20096;-94
2022/08/11 12:58:14;;;;;;;3.60;1.48;;;34.90;41.10;;;;;;4961933;29;20027;-92
2022/08/11 12:58:15;;;;;;;4.30;1.58;;;35.20;40.80;;;;;;4979047;28;20071;-92
2022/08/11 13:06:18;;;;;;;2.88;1.85;;;35.70;39.50;;;;;;4979095;28;20017;-92
2022/08/11 13:08:46;;;;;;;3.30;1.80;;;35.90;39.00;;;;;;4978558;28;20045;-92
2022/08/11 13:14:00;;;;;;;2.22;1.77;;;36.20;38.80;;;;;;4977301;29;20062;-92
2022/08/11 13:16:31;;;;;;;2.78;1.70;;;36.50;38.40;;;;;;4976200;29;20457;-91
2022/08/11 13:18:59;;;;;;;4.32;1.50;;;36.50;38.60;;;;;;4976941;29;20037;-93
2022/08/11 13:21:27;;;;;;;4.07;1.88;;;36.70;37.70;;;;;;4974997;29;20015;-93
2022/08/11 13:23:55;;;;;;;3.47;1.75;;;36.70;37.30;;;;;;4975313;29;20055;-94
2022/08/11 13:26:23;;;;;;;4.05;1.70;;;36.70;37.90;;;;;;4974670;29;20011;-94
2022/08/11 13:28:50;;;;;;;3.25;1.42;;;36.70;37.90;;;;;;4974343;29;20103;-92
2022/08/11 13:31:16;;;;;;;3.00;1.80;;;36.80;37.30;;;;;;4974181;28;20034;-92
2022/08/11 13:33:50;;;;;;;3.10;1.58;;;36.70;36.70;;;;;;4972035;29;20031;-94
2022/08/11 13:36:20;;;;;;;4.45;1.83;;;36.70;37.20;;;;;;4975513;29;20015;-94
2022/08/11 13:38:47;;;;;;;2.25;1.60;;;36.70;37.20;;;;;;4975500;29;20047;-94
2022/08/11 13:43:58;;;;;;;7.13;2.08;;;36.90;36.90;;;;;;4977124;29;20096;-93
2022/08/11 13:46:26;;;;;;;2.40;1.70;;;37.00;36.70;;;;;;4976819;28;20020;-94
2022/08/11 13:48:54;;;;;;;5.28;1.88;;;36.90;36.50;;;;;;4977229;29;20023;-92
2022/08/11 13:51:38;;;;;;;6.57;1.88;;;37.00;37.00;;;;;;4978433;28;20030;-94
2022/08/11 13:54:16;;;;;;;4.93;1.75;;;37.10;36.80;;;;;;4976010;28;20051;-94
2022/08/11 13:56:44;;;;;;;5.65;1.70;;;37.20;36.10;;;;;;4958680;29;20051;-92
2022/08/11 13:59:11;;;;;;;4.75;1.88;;;37.30;36.40;;;;;;4959933;29;20024;-93
2022/08/11 14:01:46;;;;;;;3.70;2.10;;;37.40;36.70;;;;;;4959111;29;20063;-94
2022/08/11 14:04:15;;;;;;;5.45;2.20;;;37.60;36.70;;;;;;4959748;29;20015;-93
2022/08/11 14:06:47;;;;;;;6.97;1.65;;;37.50;36.30;;;;;;4957735;28;20034;-92
2022/08/11 14:09:14;;;;;;;3.83;1.70;;;37.40;36.80;;;;;;4956332;29;20027;-93
2022/08/11 14:14:32;;;;;;;10.30;2.20;;;37.70;36.60;;;;;;4975905;29;20594;-94
2022/08/11 14:17:03;;;;;;;3.85;1.95;;;37.80;36.10;;;;;;4957880;29;20112;-95
2022/08/11 14:19:33;;;;;;;2.15;1.65;;;37.70;36.00;;;;;;4959236;29;20007;-94
2022/08/11 14:22:07;;;;;;;4.75;1.98;;;37.60;36.10;;;;;;4959492;28;20035;-90
2022/08/11 14:24:42;;;;;;;7.25;1.98;;;37.50;35.90;;;;;;4962169;29;20019;-91
2022/08/11 14:27:11;;;;;;;7.35;1.95;;;37.30;35.90;;;;;;4959978;29;20021;-94
2022/08/11 14:29:39;;;;;;;4.63;1.50;;;37.20;36.00;;;;;;4957368;29;20467;-94
2022/08/11 14:32:09;;;;;;;3.05;1.85;;;37.20;36.40;;;;;;4959316;29;20031;-94
2022/08/11 14:34:38;;;;;;;3.47;1.50;;;37.30;36.40;;;;;;4959671;29;20481;-94
2022/08/11 14:37:14;;;;;;;7.82;2.03;;;37.50;36.30;;;;;;4958220;29;20024;-93
2022/08/11 14:39:46;;;;;;;4.95;2.20;;;37.30;36.20;;;;;;4959908;29;20043;-94
2022/08/11 14:47:58;;;;;;;3.25;1.52;;;37.00;36.50;;;;;;4978494;28;20097;-93
2022/08/11 14:50:25;;;;;;;3.10;1.67;;;37.10;36.60;;;;;;4962152;29;20019;-95
2022/08/11 14:52:57;;;;;;;5.45;1.92;;;37.10;36.30;;;;;;4961737;29;20028;-95
2022/08/11 14:58:12;;;;;;;4.68;1.50;;;37.10;35.90;;;;;;4977962;28;20449;-95
2022/08/11 15:00:40;;;;;;;2.70;1.70;;;37.20;36.10;;;;;;4961129;29;20030;-92
2022/08/11 15:03:09;;;;;;;7.22;1.80;;;37.30;36.10;;;;;;4960910;29;20035;-91
2022/08/11 15:05:38;;;;;;;3.25;1.95;;;37.30;35.80;;;;;;4961716;29;20037;-93
2022/08/11 15:08:05;;;;;;;4.28;1.75;;;37.30;35.80;;;;;;4960834;29;20095;-94
2022/08/11 15:10:32;;;;;;;2.00;1.65;;;37.10;35.90;;;;;;4963110;29;20118;-94
2022/08/11 15:12:58;;;;;;;4.40;2.00;;;37.10;36.10;;;;;;4961742;29;20054;-94
2022/08/11 15:18:18;;;;;;;5.13;2.10;;;37.20;35.90;;;;;;4979491;29;20112;-93
2022/08/11 15:37:25;;;;;;;3.72;1.92;;;37.20;35.90;;;;;;4976050;29;20098;-94
2022/08/11 15:37:35;;;;;;;6.32;2.40;;;37.20;35.00;;;;;;4975265;29;20046;-94
2022/08/11 15:46:00;;;;;;;6.03;2.55;;;36.90;35.10;;;;;;4962890;29;20038;-95
2022/08/11 15:48:34;;;;;;;6.65;2.35;;;37.00;35.20;;;;;;4948306;29;20023;-91
2022/08/11 15:51:24;;;;;;;6.72;2.60;;;37.10;35.40;;;;;;4971584;29;20082;-94
2022/08/11 15:53:53;;;;;;;5.00;2.95;;;37.10;35.60;;;;;;4953987;28;20497;-93
2022/08/11 15:56:22;;;;;;;8.85;2.75;;;37.30;35.60;;;;;;4954983;29;20035;-95
2022/08/11 16:04:26;;;;;;;9.00;2.80;;;37.00;35.30;;;;;;4971370;29;20028;-93
2022/08/11 16:06:52;;;;;;;;;;;36.90;35.50;;;;;;4969062;28;20028;-94
2022/08/11 16:09:40;;;;;;;5.68;2.80;;;36.90;35.50;;;;;;4964063;29;19922;-94
2022/08/11 16:12:12;;;;;;;7.03;2.53;;;36.90;35.40;;;;;;4949629;29;20035;-92
2022/08/11 16:17:36;;;;;;;6.95;2.70;;;36.80;35.30;;;;;;4965646;29;20129;-93
2022/08/11 16:20:03;;;;;;;4.90;2.53;;;36.70;35.30;;;;;;4965016;29;20494;-93
2022/08/11 16:22:42;;;;;;;6.93;2.40;;;36.70;35.20;;;;;;4949850;29;20031;-92
2022/08/11 16:25:18;;;;;;;3.90;2.03;;;36.70;35.00;;;;;;4947447;29;20046;-94
2022/08/11 16:27:50;;;;;;;6.10;2.97;;;36.50;34.80;;;;;;4941480;29;20051;-92
2022/08/11 16:30:16;;;;;;;3.03;1.77;;;36.40;35.10;;;;;;4942065;29;20027;-93
2022/08/11 16:32:45;;;;;;;4.32;2.33;;;36.30;35.20;;;;;;4941557;29;20046;-91
2022/08/11 16:40:50;;;;;;;5.70;2.35;;;36.00;35.30;;;;;;4962598;29;20042;-92
2022/08/11 16:48:52;;;;;;;3.80;2.10;;;35.80;36.00;;;;;;4977967;29;20055;-92
2022/08/11 16:51:19;;;;;;;2.60;2.00;;;35.70;35.60;;;;;;4961239;29;20024;-92
2022/08/11 16:53:47;;;;;;;4.60;1.92;;;35.60;35.70;;;;;;4952010;29;20057;-94
2022/08/11 16:56:20;;;;;;;2.78;1.92;;;35.60;35.70;;;;;;4952455;29;20031;-91
2022/08/11 17:01:37;;;;;;;4.28;2.20;;;35.50;35.50;;;;;;4963764;29;20077;-93
2022/08/11 17:18:06;;;;;;;4.47;1.70;;;34.70;35.80;;;;;;4963711;29;20054;-93
2022/08/11 17:20:34;;;;;;;6.63;1.85;;;34.40;35.90;;;;;;4945629;29;20043;-91
2022/08/11 17:25:48;;;;;;;4.95;2.25;;;34.10;36.80;;;;;;4960663;29;20130;-93
2022/08/11 17:28:17;;;;;;;1.50;1.40;;;34.10;37.30;;;;;;4941217;29;20028;-92
2022/08/11 17:36:18;;;;;;;3.17;1.98;;;33.70;37.10;;;;;;4971498;29;20046;-92
2022/08/11 17:38:47;;;;;;;5.18;2.10;;;33.60;37.10;;;;;;4966397;29;20571;-92
2022/08/11 17:49:36;;;;;;;3.80;1.65;;;33.20;37.50;;;;;;4957054;29;20576;-90
2022/08/11 18:00:23;;;;;;;3.33;1.50;;;32.70;38.40;;;;;;4957633;29;20082;-91
2022/08/11 18:05:42;;;;;;;5.25;1.58;;;32.50;38.80;;;;;;4947629;29;20099;-92
